Meteo Giornale » Osservazioni meteo Stati Uniti (USA) » New York City Central Park

ore: 21:51 - Osservazioni Meteo New York City Central Park
Lat. 40° 47' N Lon. 73° 58' W Alt. 47 metri s.l.m.

sereno America/New_York

14 °C

Sereno

Temp. 24 Ore

13 °C

18 °C

Nord

11.1 Km/h

Dew point 2 °C

Umidità 44 %

Visibilità  10 Km

Il sole sorge alle ore 07:15

Il sole tramonta alle ore 18:04

Data e Ora Cielo e Fenomeni T °C DP °C Um. % Pres. hPa Vis. km Vento km/h
Oggi h: 21:51 sereno Sereno 14 2 44 1021 10 N 11.1
Oggi h: 20:51 sereno Sereno 15 2 41 1021 10 N 0
Oggi h: 19:51 sereno Sereno 15 1 38 1020 10 N 0
Oggi h: 18:51 sereno Sereno 16 2 38 1018 10 O 11.1
Oggi h: 17:51 sereno Sereno 17 1 33 1017 10 O 9.3
Oggi h: 16:51 sereno Sereno 18 1 31 1016 10 N 11.1
Oggi h: 15:51 sereno Sereno 18 -1 27 1015 10 N 11.1
Oggi h: 14:51 sereno Sereno 18 1 31 1015 10 O 13
Oggi h: 13:51 sereno Sereno 18 2 34 1015 10 O/NO 13
Oggi h: 12:51 poco_nuvoloso Poco Nuvoloso 17 3 39 1015 10 O 16.7
Oggi h: 11:51 sereno Sereno 17 5 45 1015 10 O 14.8
Oggi h: 10:51 sereno Sereno 16 8 58 1014 10 O/NO 9.3
Oggi h: 09:51 sereno Sereno 15 8 62 1014 10 N 11.1
Oggi h: 08:51 sereno Sereno 14 9 71 1013 10 N 11.1
Oggi h: 07:51 sereno Sereno 13 10 81 1012 10 O 7.4
Oggi h: 06:51 sereno Sereno 13 11 87 1011 10 N 9.3
Oggi h: 05:51 sereno Sereno 14 12 87 1010 10 O 11.1
Oggi h: 04:51 sereno Sereno 14 13 93 1009 10 O 7.4
Oggi h: 03:51 coperto Coperto 15 13 87 1008 10 N 5.5
Oggi h: 02:51 coperto Coperto 16 14 87 1008 10 N/NO 7.4
Oggi h: 02:36 coperto Coperto 16 14 87 1008 10 O/NO 7.4
Oggi h: 02:20 coperto Coperto 16 15 93 1008 10 O/NO 13
Oggi h: 01:51 coperto_pioggia Pioggia Debole 16 16 100 1008 11 O 9.3
Oggi h: 01:43 coperto_pioggia Pioggia Debole Foschia 17 16 93 1008 6 O 14.8
Oggi h: 01:22 foschia Foschia 17 17 100 1008 10 N 5.5
Oggi h: 01:15 foschia Foschia 17 17 100 1008 10 N 0
Oggi h: 01:06 coperto_pioggia Pioggia Debole Foschia 17 17 100 1008 5 N 5.5
Oggi h: 00:51 coperto_pioggia Pioggia Debole Foschia 17 17 100 1008 2 N 0
Oggi h: 00:13 coperto_pioggia Pioggia Foschia 17 16 93 1009 2 N 5.5
Oggi h: 00:03 coperto_pioggia Pioggia Debole Foschia 17 17 100 1009 3 N 9.3
Ieri h: 23:51 coperto_pioggia Pioggia Debole Foschia 17 17 100 1009 6 S/SE 14.8
Ieri h: 23:29 coperto_pioggia Pioggia Debole Foschia 17 17 100 1009 5 N 9.3
Ieri h: 23:17 coperto_pioggia Pioggia Debole Foschia 17 16 93 1009 3 N 7.4
Ieri h: 22:51 coperto_pioggia Pioggia Debole Foschia 16 16 100 1010 6 N 9.3
Ieri h: 22:49 coperto_pioggia Pioggia Debole Foschia 16 16 100 1010 5 N 9.3
Ieri h: 22:40 coperto_pioggia Pioggia Foschia 16 15 93 1010 2 N 5.5